Time;durP1;ratioP1;P1;durP2;ratioP2;P2;SDS_P1;SDS_P2;PMS_P1;PMS_P2;Temp;Humidity;BMP_temperature;BMP_pressure;BME280_temperature;BME280_humidity;BME280_pressure;Samples;Min_cycle;Max_cycle;Signal;HPM_P1;HPM_P2
2023/05/18 00:00:54;;;;;;;7.60;2.78;;;;;;;;;;5066916;28;20043;-65
2023/05/18 00:03:20;;;;;;;16.00;2.35;;;;;;;;;;5068611;28;20065;-65
2023/05/18 00:05:48;;;;;;;8.40;2.78;;;;;;;;;;5070778;28;20036;-65
2023/05/18 00:08:14;;;;;;;9.23;3.35;;;;;;;;;;5055607;28;20062;-65
2023/05/18 00:10:40;;;;;;;11.50;2.90;;;;;;;;;;5067838;28;20102;-65
2023/05/18 00:13:07;;;;;;;11.10;3.05;;;;;;;;;;5067468;28;20052;-65
2023/05/18 00:15:33;;;;;;;12.40;2.47;;;;;;;;;;5070543;28;20071;-65
2023/05/18 00:18:00;;;;;;;8.85;2.33;;;;;;;;;;5071561;28;20044;-64
2023/05/18 00:20:26;;;;;;;9.85;2.85;;;;;;;;;;5070846;28;20515;-65
2023/05/18 00:22:52;;;;;;;9.95;2.58;;;;;;;;;;5068982;28;20048;-65
2023/05/18 00:25:18;;;;;;;10.80;2.22;;;;;;;;;;5069475;28;20109;-65
2023/05/18 00:27:45;;;;;;;9.68;2.40;;;;;;;;;;5071887;28;20040;-65
2023/05/18 00:30:12;;;;;;;12.50;4.38;;;;;;;;;;5070155;28;20682;-65
2023/05/18 00:32:39;;;;;;;16.92;2.70;;;;;;;;;;5071266;28;20040;-65
2023/05/18 00:35:06;;;;;;;12.75;3.97;;;;;;;;;;5070507;28;20056;-65
2023/05/18 00:37:32;;;;;;;11.13;2.90;;;;;;;;;;5071804;28;20052;-65
2023/05/18 00:39:58;;;;;;;6.38;2.95;;;;;;;;;;5070385;28;20186;-65
2023/05/18 00:42:25;;;;;;;8.02;2.67;;;;;;;;;;5065190;28;20051;-65
2023/05/18 00:44:51;;;;;;;7.95;2.97;;;;;;;;;;5065354;28;20056;-65
2023/05/18 00:47:20;;;;;;;6.38;2.67;;;;;;;;;;5072988;28;20201;-65
2023/05/18 00:49:46;;;;;;;6.95;2.60;;;;;;;;;;5065658;28;20052;-65
2023/05/18 00:52:12;;;;;;;9.98;2.20;;;;;;;;;;5070867;28;20033;-65
2023/05/18 00:54:39;;;;;;;7.30;2.55;;;;;;;;;;5067740;28;20044;-65
2023/05/18 00:57:05;;;;;;;8.35;2.83;;;;;;;;;;5067729;28;21042;-65
2023/05/18 00:59:32;;;;;;;11.40;3.38;;;;;;;;;;5066406;28;20089;-65
2023/05/18 01:01:58;;;;;;;9.93;2.97;;;;;;;;;;5068004;28;20052;-65
2023/05/18 01:04:26;;;;;;;10.65;2.78;;;;;;;;;;5068730;28;20032;-65
2023/05/18 01:06:55;;;;;;;8.38;2.92;;;;;;;;;;5068583;28;20056;-65
2023/05/18 01:09:22;;;;;;;7.35;3.08;;;;;;;;;;5064861;28;20466;-65
2023/05/18 01:11:48;;;;;;;8.02;2.40;;;;;;;;;;5064636;28;20076;-65
2023/05/18 01:14:14;;;;;;;8.68;2.67;;;;;;;;;;5067032;28;20067;-65
2023/05/18 01:16:44;;;;;;;10.40;3.53;;;;;;;;;;5070199;28;20408;-65
2023/05/18 01:19:23;;;;;;;8.68;2.83;;;;;;;;;;5071625;28;20059;-65
2023/05/18 01:21:57;;;;;;;13.52;3.20;;;;;;;;;;5070349;28;20158;-65
2023/05/18 01:24:24;;;;;;;6.63;2.67;;;;;;;;;;5071550;28;20049;-65
2023/05/18 01:26:56;;;;;;;8.20;3.08;;;;;;;;;;5070566;28;20403;-65
2023/05/18 01:29:25;;;;;;;7.03;2.78;;;;;;;;;;5069080;28;20990;-65
2023/05/18 01:31:51;;;;;;;8.45;3.95;;;;;;;;;;5070832;28;20064;-65
2023/05/18 01:34:18;;;;;;;11.60;2.83;;;;;;;;;;5074946;28;20044;-65
2023/05/18 01:36:44;;;;;;;10.50;3.38;;;;;;;;;;5069963;28;20503;-65
2023/05/18 01:39:10;;;;;;;8.65;2.80;;;;;;;;;;5055901;28;20063;-65
2023/05/18 01:41:41;;;;;;;7.38;2.95;;;;;;;;;;5076062;28;20036;-65
2023/05/18 01:44:11;;;;;;;7.88;3.10;;;;;;;;;;5071651;28;20050;-65
2023/05/18 01:46:38;;;;;;;9.05;3.10;;;;;;;;;;5071557;28;20083;-65
2023/05/18 01:49:08;;;;;;;8.43;2.78;;;;;;;;;;5067037;28;20052;-65
2023/05/18 01:51:36;;;;;;;15.95;4.32;;;;;;;;;;5071606;28;20046;-65
2023/05/18 01:54:05;;;;;;;8.27;3.22;;;;;;;;;;5072703;28;20040;-65
2023/05/18 01:56:32;;;;;;;9.45;3.38;;;;;;;;;;5069883;28;20039;-65
2023/05/18 01:58:59;;;;;;;8.73;3.28;;;;;;;;;;5068002;28;20044;-65
2023/05/18 02:01:25;;;;;;;7.53;2.97;;;;;;;;;;5072212;28;20143;-65
2023/05/18 02:03:51;;;;;;;8.68;3.03;;;;;;;;;;5073319;28;20109;-65
2023/05/18 02:06:17;;;;;;;8.50;2.97;;;;;;;;;;5070002;28;20043;-65
2023/05/18 02:08:43;;;;;;;10.88;3.20;;;;;;;;;;5074303;28;20048;-65
2023/05/18 02:11:09;;;;;;;9.68;3.17;;;;;;;;;;5071594;28;20049;-64
2023/05/18 02:13:36;;;;;;;7.78;3.25;;;;;;;;;;5072411;28;20075;-63
2023/05/18 02:16:03;;;;;;;6.07;2.75;;;;;;;;;;5070682;28;20045;-64
2023/05/18 02:18:32;;;;;;;10.95;3.75;;;;;;;;;;5070820;28;20048;-65
2023/05/18 02:20:59;;;;;;;12.20;3.47;;;;;;;;;;5071510;28;20056;-65
2023/05/18 02:23:25;;;;;;;10.90;3.40;;;;;;;;;;5072159;28;20040;-65
2023/05/18 02:25:54;;;;;;;19.83;4.97;;;;;;;;;;5072310;28;20098;-65
2023/05/18 02:28:20;;;;;;;7.93;3.03;;;;;;;;;;5070682;28;20090;-65
2023/05/18 02:30:47;;;;;;;9.93;3.58;;;;;;;;;;5068647;28;21888;-65
2023/05/18 02:33:13;;;;;;;9.55;3.25;;;;;;;;;;5068361;28;20044;-65
2023/05/18 02:35:40;;;;;;;9.65;3.30;;;;;;;;;;5078837;27;20132;-65
2023/05/18 02:38:07;;;;;;;6.85;2.63;;;;;;;;;;5071877;28;20556;-65
2023/05/18 02:40:33;;;;;;;19.48;3.63;;;;;;;;;;5075679;28;20048;-66
2023/05/18 02:42:59;;;;;;;15.77;3.17;;;;;;;;;;5073607;27;20131;-65
2023/05/18 02:45:25;;;;;;;9.90;3.22;;;;;;;;;;5100515;28;20043;-65
2023/05/18 02:47:51;;;;;;;10.10;3.83;;;;;;;;;;5100389;28;20475;-65
2023/05/18 02:50:17;;;;;;;7.75;3.10;;;;;;;;;;5104639;28;20040;-65
2023/05/18 02:52:44;;;;;;;8.80;3.58;;;;;;;;;;5076682;28;20047;-65
2023/05/18 02:55:12;;;;;;;6.97;3.30;;;;;;;;;;5072673;28;20062;-65
2023/05/18 02:57:38;;;;;;;10.15;3.22;;;;;;;;;;5070221;28;20063;-65
2023/05/18 03:00:10;;;;;;;8.57;3.67;;;;;;;;;;5071045;28;20055;-65
2023/05/18 03:02:37;;;;;;;6.95;3.22;;;;;;;;;;5087366;27;20040;-65
2023/05/18 03:05:04;;;;;;;7.45;3.03;;;;;;;;;;5090399;27;20127;-65
2023/05/18 03:07:31;;;;;;;9.88;3.38;;;;;;;;;;5091817;27;20591;-64
2023/05/18 03:09:58;;;;;;;10.70;3.35;;;;;;;;;;5093464;28;20047;-65
2023/05/18 03:12:24;;;;;;;7.68;3.47;;;;;;;;;;5072086;28;20064;-65
2023/05/18 03:14:50;;;;;;;8.43;3.40;;;;;;;;;;5069963;28;20140;-65
2023/05/18 03:17:16;;;;;;;7.30;3.10;;;;;;;;;;5070222;27;20057;-65
2023/05/18 03:19:42;;;;;;;7.20;3.35;;;;;;;;;;5093285;27;20050;-65
2023/05/18 03:22:09;;;;;;;5.28;3.00;;;;;;;;;;5091437;27;20039;-65
2023/05/18 03:24:39;;;;;;;10.77;4.72;;;;;;;;;;5088042;27;21032;-65
2023/05/18 03:27:06;;;;;;;6.68;2.95;;;;;;;;;;5072495;28;20126;-65
2023/05/18 03:29:34;;;;;;;9.15;4.80;;;;;;;;;;5072286;28;20079;-65
2023/05/18 03:32:00;;;;;;;12.23;3.95;;;;;;;;;;5071537;28;20483;-65
2023/05/18 03:34:26;;;;;;;8.95;4.07;;;;;;;;;;5069522;28;20052;-65
2023/05/18 03:36:53;;;;;;;12.25;4.03;;;;;;;;;;5090775;27;20129;-65
2023/05/18 03:39:20;;;;;;;9.85;4.60;;;;;;;;;;5072153;28;20043;-65
2023/05/18 03:41:46;;;;;;;13.07;4.82;;;;;;;;;;5070725;28;20047;-65
2023/05/18 03:44:12;;;;;;;7.22;3.10;;;;;;;;;;5071575;28;20051;-65
2023/05/18 03:46:38;;;;;;;6.90;3.35;;;;;;;;;;5092048;27;20060;-65
2023/05/18 03:49:06;;;;;;;9.13;3.72;;;;;;;;;;5074985;28;20158;-65
2023/05/18 03:51:33;;;;;;;7.43;3.35;;;;;;;;;;5090700;27;20036;-65
2023/05/18 03:53:59;;;;;;;12.35;4.10;;;;;;;;;;5073669;28;20072;-65
2023/05/18 03:56:25;;;;;;;11.43;4.32;;;;;;;;;;5093970;27;20078;-65
2023/05/18 03:58:51;;;;;;;10.45;3.53;;;;;;;;;;5093815;27;20043;-65
2023/05/18 04:01:18;;;;;;;15.70;3.97;;;;;;;;;;5090955;28;20047;-65
2023/05/18 04:03:44;;;;;;;9.75;4.05;;;;;;;;;;5070205;28;20495;-65
2023/05/18 04:06:11;;;;;;;6.95;3.42;;;;;;;;;;5089921;27;20486;-65
2023/05/18 04:08:37;;;;;;;9.75;3.80;;;;;;;;;;5069449;28;21315;-65
2023/05/18 04:11:03;;;;;;;11.85;3.88;;;;;;;;;;5089587;27;20032;-65
2023/05/18 04:13:29;;;;;;;7.57;3.80;;;;;;;;;;5088229;27;20051;-65
2023/05/18 04:15:57;;;;;;;10.52;3.95;;;;;;;;;;5068913;28;20040;-65
2023/05/18 04:18:23;;;;;;;12.13;4.20;;;;;;;;;;5071749;27;20044;-65
2023/05/18 04:20:49;;;;;;;8.15;4.10;;;;;;;;;;5071066;28;20459;-65
2023/05/18 04:23:16;;;;;;;14.02;3.88;;;;;;;;;;5088810;28;20054;-65
2023/05/18 04:25:42;;;;;;;7.90;3.45;;;;;;;;;;5091494;28;20052;-65
2023/05/18 04:28:08;;;;;;;8.25;4.13;;;;;;;;;;5071055;28;20043;-65
2023/05/18 04:30:36;;;;;;;9.60;4.32;;;;;;;;;;5071020;28;20060;-65
2023/05/18 04:33:03;;;;;;;12.90;4.30;;;;;;;;;;5069785;28;20111;-65
2023/05/18 04:35:30;;;;;;;8.38;4.07;;;;;;;;;;5073203;28;20051;-65
2023/05/18 04:37:56;;;;;;;9.95;4.55;;;;;;;;;;5095218;28;20047;-65
2023/05/18 04:40:24;;;;;;;8.80;4.82;;;;;;;;;;5092924;28;20489;-65
2023/05/18 04:42:50;;;;;;;9.20;3.97;;;;;;;;;;5090291;28;20112;-65
2023/05/18 04:45:18;;;;;;;15.30;4.70;;;;;;;;;;5068336;27;20136;-65
2023/05/18 04:47:45;;;;;;;8.88;3.47;;;;;;;;;;5052572;28;20084;-65
2023/05/18 04:50:15;;;;;;;13.18;4.53;;;;;;;;;;5088974;28;20083;-65
2023/05/18 04:52:46;;;;;;;12.27;4.63;;;;;;;;;;5089511;28;20079;-65
2023/05/18 04:55:13;;;;;;;8.68;3.88;;;;;;;;;;5075655;27;20044;-65
2023/05/18 04:57:39;;;;;;;11.25;4.03;;;;;;;;;;5096560;27;20040;-65
2023/05/18 05:00:08;;;;;;;12.40;4.05;;;;;;;;;;5077056;27;21017;-65
2023/05/18 05:02:34;;;;;;;9.20;3.53;;;;;;;;;;5096185;27;20521;-64
2023/05/18 05:05:00;;;;;;;14.15;4.18;;;;;;;;;;5096145;27;20117;-65
2023/05/18 05:07:26;;;;;;;12.05;4.07;;;;;;;;;;5076460;27;20062;-65
2023/05/18 05:09:53;;;;;;;12.93;4.47;;;;;;;;;;5096544;27;20043;-65
2023/05/18 05:12:19;;;;;;;11.45;4.03;;;;;;;;;;5077258;27;20047;-65
2023/05/18 05:14:45;;;;;;;8.80;3.35;;;;;;;;;;5096877;27;20039;-64
2023/05/18 05:17:11;;;;;;;8.90;4.20;;;;;;;;;;5075540;27;20770;-65
2023/05/18 05:19:37;;;;;;;15.48;4.00;;;;;;;;;;5076963;27;20130;-65
2023/05/18 05:22:04;;;;;;;8.98;3.60;;;;;;;;;;5095541;27;20099;-65
2023/05/18 05:24:30;;;;;;;10.45;3.85;;;;;;;;;;5077189;27;20424;-65
2023/05/18 05:26:56;;;;;;;7.90;3.65;;;;;;;;;;5097582;27;20395;-65
2023/05/18 05:29:22;;;;;;;8.90;3.63;;;;;;;;;;5077689;27;20498;-66
2023/05/18 05:31:48;;;;;;;7.45;3.30;;;;;;;;;;5098471;27;20031;-65
2023/05/18 05:34:14;;;;;;;8.13;3.35;;;;;;;;;;5082459;27;20054;-65
2023/05/18 05:36:40;;;;;;;12.00;3.05;;;;;;;;;;5077095;27;20373;-65
2023/05/18 05:39:07;;;;;;;6.13;2.58;;;;;;;;;;5100009;27;20048;-65
2023/05/18 05:41:33;;;;;;;6.95;3.00;;;;;;;;;;5081471;27;20483;-65
2023/05/18 05:43:59;;;;;;;9.38;3.10;;;;;;;;;;5099499;27;20539;-65
2023/05/18 05:46:25;;;;;;;9.75;2.28;;;;;;;;;;5094692;27;20044;-65
2023/05/18 05:48:51;;;;;;;4.70;1.88;;;;;;;;;;5079602;28;20048;-65
2023/05/18 05:51:17;;;;;;;7.28;1.92;;;;;;;;;;5098396;28;20420;-65
2023/05/18 05:53:46;;;;;;;11.73;2.15;;;;;;;;;;5077379;28;20711;-70
2023/05/18 05:56:12;;;;;;;7.85;2.63;;;;;;;;;;5083689;28;20040;-65
2023/05/18 05:58:38;;;;;;;10.68;2.38;;;;;;;;;;5081374;28;20180;-65
2023/05/18 06:01:04;;;;;;;7.13;1.60;;;;;;;;;;5078433;28;20042;-65
2023/05/18 06:03:31;;;;;;;5.60;1.58;;;;;;;;;;5095542;28;20073;-66
2023/05/18 06:05:57;;;;;;;8.70;2.45;;;;;;;;;;5096816;28;20047;-65
2023/05/18 06:08:23;;;;;;;12.00;3.40;;;;;;;;;;5093446;28;20051;-64
2023/05/18 06:10:50;;;;;;;6.10;1.70;;;;;;;;;;5092767;28;20055;-65
2023/05/18 06:13:16;;;;;;;7.38;1.80;;;;;;;;;;5070190;28;20127;-65
2023/05/18 06:15:42;;;;;;;14.40;2.40;;;;;;;;;;5091570;28;20078;-64
2023/05/18 06:18:08;;;;;;;11.15;2.00;;;;;;;;;;5093296;28;20036;-64
2023/05/18 06:20:34;;;;;;;6.95;1.75;;;;;;;;;;5095775;27;20059;-65
2023/05/18 06:23:00;;;;;;;11.77;2.38;;;;;;;;;;5073940;28;20495;-65
2023/05/18 06:25:27;;;;;;;10.80;2.28;;;;;;;;;;5077425;28;20051;-64
2023/05/18 06:27:53;;;;;;;10.00;2.25;;;;;;;;;;5090030;28;20085;-65
2023/05/18 06:30:19;;;;;;;8.35;2.42;;;;;;;;;;5071742;28;20075;-65
2023/05/18 06:32:46;;;;;;;7.90;1.70;;;;;;;;;;5074117;27;20097;-65
2023/05/18 06:35:12;;;;;;;8.05;1.40;;;;;;;;;;5072514;28;20411;-64
2023/05/18 06:37:38;;;;;;;8.75;1.90;;;;;;;;;;5071889;28;20096;-64
2023/05/18 06:40:06;;;;;;;9.13;1.73;;;;;;;;;;5076630;28;20044;-64
2023/05/18 06:42:32;;;;;;;8.07;2.00;;;;;;;;;;5069901;28;22005;-66
2023/05/18 06:44:58;;;;;;;14.38;1.98;;;;;;;;;;5068866;28;20044;-65
2023/05/18 06:47:25;;;;;;;8.02;2.03;;;;;;;;;;5072301;28;20041;-65
2023/05/18 06:49:51;;;;;;;10.15;1.85;;;;;;;;;;5070069;28;20459;-65
2023/05/18 06:52:17;;;;;;;7.85;1.83;;;;;;;;;;5070537;28;20052;-66
2023/05/18 06:54:43;;;;;;;7.68;1.60;;;;;;;;;;5071308;28;20373;-66
2023/05/18 06:57:09;;;;;;;11.68;1.77;;;;;;;;;;5071743;28;20103;-65
2023/05/18 06:59:35;;;;;;;5.55;2.17;;;;;;;;;;5069264;28;20046;-65
2023/05/18 07:02:02;;;;;;;6.22;2.05;;;;;;;;;;5086654;27;20044;-66
2023/05/18 07:04:28;;;;;;;10.32;2.42;;;;;;;;;;5077956;28;20253;-65
2023/05/18 07:06:55;;;;;;;7.72;1.65;;;;;;;;;;5075055;28;20579;-66
2023/05/18 07:09:21;;;;;;;6.82;2.67;;;;;;;;;;5066393;28;20063;-66
2023/05/18 07:11:48;;;;;;;6.68;1.95;;;;;;;;;;5071675;28;20174;-64
2023/05/18 07:14:14;;;;;;;9.07;1.67;;;;;;;;;;5073175;28;20045;-64
2023/05/18 07:16:40;;;;;;;5.78;1.65;;;;;;;;;;5068868;28;20173;-65
2023/05/18 07:19:06;;;;;;;10.32;2.03;;;;;;;;;;5071903;28;20047;-67
2023/05/18 07:21:33;;;;;;;7.30;1.83;;;;;;;;;;5068396;28;20521;-65
2023/05/18 07:23:59;;;;;;;7.03;1.50;;;;;;;;;;5077207;28;20057;-65
2023/05/18 07:26:25;;;;;;;8.05;2.83;;;;;;;;;;5069859;28;20060;-65
2023/05/18 07:28:52;;;;;;;11.80;2.20;;;;;;;;;;5069975;28;20094;-65
2023/05/18 07:31:20;;;;;;;8.48;2.47;;;;;;;;;;5072272;28;20040;-65
2023/05/18 07:33:47;;;;;;;8.15;1.80;;;;;;;;;;5068990;28;20044;-65
2023/05/18 07:36:14;;;;;;;6.40;1.70;;;;;;;;;;5066164;28;20049;-65
2023/05/18 07:38:40;;;;;;;8.85;1.88;;;;;;;;;;5070860;28;20057;-65
2023/05/18 07:41:06;;;;;;;11.25;2.00;;;;;;;;;;5068782;28;20495;-65
2023/05/18 07:43:32;;;;;;;11.27;2.55;;;;;;;;;;5069969;28;20056;-65
2023/05/18 07:45:59;;;;;;;9.40;1.80;;;;;;;;;;5069706;28;20051;-65
2023/05/18 07:48:25;;;;;;;8.70;2.00;;;;;;;;;;5073993;28;20048;-65
2023/05/18 07:50:51;;;;;;;7.20;2.72;;;;;;;;;;5073788;28;20124;-64
2023/05/18 07:53:17;;;;;;;10.07;1.63;;;;;;;;;;5069668;28;20036;-65
2023/05/18 07:55:44;;;;;;;8.43;1.75;;;;;;;;;;5068842;28;20048;-65
2023/05/18 07:58:10;;;;;;;6.32;1.50;;;;;;;;;;5050374;28;20108;-65
2023/05/18 08:00:36;;;;;;;7.32;2.10;;;;;;;;;;5070370;28;20059;-65
2023/05/18 08:03:03;;;;;;;8.00;1.83;;;;;;;;;;5068962;28;20048;-65
2023/05/18 08:05:29;;;;;;;11.15;1.88;;;;;;;;;;5071338;28;20048;-65
2023/05/18 08:07:55;;;;;;;9.88;1.90;;;;;;;;;;5074438;28;20091;-65
2023/05/18 08:10:22;;;;;;;7.65;1.92;;;;;;;;;;5073600;28;20047;-65
2023/05/18 08:12:48;;;;;;;7.38;1.88;;;;;;;;;;5069199;28;20048;-64
2023/05/18 08:15:15;;;;;;;7.28;2.05;;;;;;;;;;5071581;28;20454;-65
2023/05/18 08:17:42;;;;;;;11.75;2.35;;;;;;;;;;5070889;28;20048;-69
2023/05/18 08:20:09;;;;;;;9.18;1.90;;;;;;;;;;5069719;28;20080;-64
2023/05/18 08:22:35;;;;;;;14.48;2.13;;;;;;;;;;5074083;28;20090;-67
2023/05/18 08:25:01;;;;;;;6.63;1.55;;;;;;;;;;5077195;28;20082;-66
2023/05/18 08:27:28;;;;;;;8.20;1.92;;;;;;;;;;5075220;28;20397;-66
2023/05/18 08:29:54;;;;;;;8.98;2.92;;;;;;;;;;5073714;28;20483;-67
2023/05/18 08:32:20;;;;;;;4.88;1.60;;;;;;;;;;5071586;28;20055;-67
2023/05/18 08:34:49;;;;;;;8.05;2.03;;;;;;;;;;5075037;28;20131;-66
2023/05/18 08:37:15;;;;;;;8.32;2.15;;;;;;;;;;5075402;28;20058;-67
2023/05/18 08:39:41;;;;;;;9.40;2.22;;;;;;;;;;5073339;28;20194;-67
2023/05/18 08:42:11;;;;;;;6.82;2.30;;;;;;;;;;5078449;28;20073;-66
2023/05/18 08:44:44;;;;;;;7.50;1.70;;;;;;;;;;5079096;28;20090;-67
2023/05/18 08:47:10;;;;;;;7.85;2.08;;;;;;;;;;5083842;28;20043;-67
2023/05/18 08:49:36;;;;;;;10.48;2.20;;;;;;;;;;5094208;28;20047;-67
2023/05/18 08:52:03;;;;;;;9.70;2.20;;;;;;;;;;5081315;28;20040;-67
2023/05/18 08:54:30;;;;;;;10.60;2.25;;;;;;;;;;5091215;28;20063;-66
2023/05/18 08:56:58;;;;;;;9.55;2.03;;;;;;;;;;5094619;28;20478;-67
2023/05/18 08:59:26;;;;;;;7.22;2.67;;;;;;;;;;5076256;28;20052;-66
2023/05/18 09:01:53;;;;;;;7.70;2.25;;;;;;;;;;5072289;28;20093;-66
2023/05/18 09:04:20;;;;;;;11.25;2.33;;;;;;;;;;5078755;28;20149;-67
2023/05/18 09:06:48;;;;;;;9.48;2.25;;;;;;;;;;5094477;28;20039;-67
2023/05/18 09:09:15;;;;;;;6.13;1.95;;;;;;;;;;5078315;28;20048;-67
2023/05/18 09:11:41;;;;;;;6.45;2.47;;;;;;;;;;5072194;28;20059;-67
2023/05/18 09:14:07;;;;;;;11.55;2.15;;;;;;;;;;5096222;28;20444;-66
2023/05/18 09:16:33;;;;;;;8.00;2.33;;;;;;;;;;5095236;28;20490;-67
2023/05/18 09:19:00;;;;;;;8.27;2.63;;;;;;;;;;5092017;28;20094;-66
2023/05/18 09:21:26;;;;;;;9.20;2.22;;;;;;;;;;5074130;28;20361;-67
2023/05/18 09:23:52;;;;;;;7.63;2.17;;;;;;;;;;5093620;28;20175;-66
2023/05/18 09:26:20;;;;;;;10.60;2.70;;;;;;;;;;5093436;28;20067;-67
2023/05/18 09:28:51;;;;;;;9.45;2.72;;;;;;;;;;5095252;28;20199;-67
2023/05/18 09:31:18;;;;;;;8.43;2.92;;;;;;;;;;5075751;28;20043;-67
2023/05/18 09:33:44;;;;;;;8.13;2.17;;;;;;;;;;5077257;28;20464;-67
2023/05/18 09:36:11;;;;;;;9.13;2.67;;;;;;;;;;5073372;28;20044;-67
2023/05/18 09:38:42;;;;;;;8.68;2.45;;;;;;;;;;5099158;28;20112;-67
2023/05/18 09:41:11;;;;;;;8.15;2.25;;;;;;;;;;5079267;28;20104;-67
2023/05/18 09:43:37;;;;;;;11.75;1.90;;;;;;;;;;5084169;28;20150;-67
2023/05/18 09:46:07;;;;;;;10.30;2.03;;;;;;;;;;5085884;28;20068;-67
2023/05/18 09:48:35;;;;;;;9.00;2.40;;;;;;;;;;5085095;28;20047;-66
2023/05/18 09:51:01;;;;;;;7.68;2.50;;;;;;;;;;5097895;28;20111;-66
2023/05/18 09:53:28;;;;;;;10.98;2.75;;;;;;;;;;5076237;28;20048;-67
2023/05/18 09:55:54;;;;;;;10.45;2.88;;;;;;;;;;5095171;27;20031;-67
2023/05/18 09:58:20;;;;;;;8.77;2.50;;;;;;;;;;5079174;27;20138;-68
2023/05/18 10:00:50;;;;;;;11.00;2.55;;;;;;;;;;5094464;27;20036;-68
2023/05/18 10:03:17;;;;;;;9.02;2.40;;;;;;;;;;5086222;28;20467;-67
2023/05/18 10:05:44;;;;;;;6.53;2.17;;;;;;;;;;5089711;27;20039;-69
2023/05/18 10:08:12;;;;;;;10.07;2.30;;;;;;;;;;5075380;28;20052;-69
2023/05/18 10:10:39;;;;;;;9.60;2.10;;;;;;;;;;5079868;28;20161;-69
2023/05/18 10:13:06;;;;;;;9.85;2.58;;;;;;;;;;5082403;28;20545;-69
2023/05/18 10:15:32;;;;;;;9.63;2.95;;;;;;;;;;5093880;27;20050;-69
2023/05/18 10:17:59;;;;;;;11.40;2.65;;;;;;;;;;5096947;27;20097;-69
2023/05/18 10:20:26;;;;;;;6.80;1.83;;;;;;;;;;5073578;28;20083;-69
2023/05/18 10:22:54;;;;;;;8.13;2.35;;;;;;;;;;5096495;27;20039;-69
2023/05/18 10:25:21;;;;;;;12.75;2.60;;;;;;;;;;5096188;27;20082;-69
2023/05/18 10:27:49;;;;;;;9.45;2.20;;;;;;;;;;5095561;28;20337;-69
2023/05/18 10:30:16;;;;;;;7.07;2.13;;;;;;;;;;5060735;28;20044;-69
2023/05/18 10:32:44;;;;;;;7.18;1.98;;;;;;;;;;5096245;27;20113;-69
2023/05/18 10:35:11;;;;;;;7.32;2.35;;;;;;;;;;5099680;28;20070;-69
2023/05/18 10:37:38;;;;;;;13.77;2.70;;;;;;;;;;5095528;28;20471;-69
2023/05/18 10:40:05;;;;;;;10.30;2.22;;;;;;;;;;5077089;28;20044;-69
2023/05/18 10:42:32;;;;;;;7.93;2.95;;;;;;;;;;5098995;28;20067;-69
2023/05/18 10:45:00;;;;;;;8.88;2.33;;;;;;;;;;5078295;27;20141;-69
2023/05/18 10:47:27;;;;;;;9.85;1.98;;;;;;;;;;5074814;28;20040;-69
2023/05/18 10:49:53;;;;;;;9.35;2.60;;;;;;;;;;5080745;28;20419;-69
2023/05/18 10:52:20;;;;;;;11.98;2.88;;;;;;;;;;5079679;28;20040;-69
2023/05/18 10:54:47;;;;;;;5.47;1.75;;;;;;;;;;5080480;27;20067;-70
2023/05/18 10:57:15;;;;;;;7.72;2.10;;;;;;;;;;5098263;27;20035;-69
2023/05/18 10:59:43;;;;;;;8.95;2.00;;;;;;;;;;5078611;28;20131;-69
2023/05/18 11:02:10;;;;;;;6.00;1.80;;;;;;;;;;5094884;27;20117;-69
2023/05/18 11:04:39;;;;;;;9.20;2.38;;;;;;;;;;5097953;27;20093;-69
2023/05/18 11:07:05;;;;;;;8.63;2.03;;;;;;;;;;5078598;28;20467;-69
2023/05/18 11:09:31;;;;;;;8.15;2.38;;;;;;;;;;5081184;28;20174;-69
2023/05/18 11:11:58;;;;;;;9.18;2.17;;;;;;;;;;5075154;28;20040;-69
2023/05/18 11:14:26;;;;;;;7.30;2.00;;;;;;;;;;5077401;28;20079;-69
2023/05/18 11:16:52;;;;;;;7.13;2.45;;;;;;;;;;5091510;27;20097;-69
2023/05/18 11:19:19;;;;;;;8.63;1.90;;;;;;;;;;5095800;27;20782;-69
2023/05/18 11:21:45;;;;;;;5.60;1.75;;;;;;;;;;5073875;28;20048;-69
2023/05/18 11:24:14;;;;;;;10.07;2.20;;;;;;;;;;5076170;28;20051;-69
2023/05/18 11:26:41;;;;;;;7.88;1.85;;;;;;;;;;5079169;28;20434;-69
2023/05/18 11:29:17;;;;;;;7.30;2.65;;;;;;;;;;5074104;28;20700;-69
2023/05/18 11:31:44;;;;;;;6.20;1.92;;;;;;;;;;5074287;28;20028;-69
2023/05/18 11:34:29;;;;;;;8.00;2.45;;;;;;;;;;5093177;28;20391;-69
2023/05/18 11:36:55;;;;;;;13.60;2.60;;;;;;;;;;5097037;27;20071;-69
2023/05/18 11:39:23;;;;;;;10.88;2.53;;;;;;;;;;5094203;28;20063;-69
2023/05/18 11:41:59;;;;;;;5.22;1.95;;;;;;;;;;5076607;28;20112;-70
2023/05/18 11:44:27;;;;;;;9.10;2.22;;;;;;;;;;5075631;28;20096;-69
2023/05/18 11:47:01;;;;;;;8.50;2.15;;;;;;;;;;5096380;28;20047;-69
2023/05/18 11:49:30;;;;;;;6.93;2.22;;;;;;;;;;5077171;28;20076;-69
2023/05/18 11:51:57;;;;;;;7.55;2.15;;;;;;;;;;5076147;28;20095;-69
2023/05/18 11:54:24;;;;;;;7.72;1.95;;;;;;;;;;5093925;28;20048;-69
2023/05/18 11:56:51;;;;;;;6.07;2.30;;;;;;;;;;5079659;28;20372;-69
2023/05/18 11:59:18;;;;;;;8.45;2.40;;;;;;;;;;5093622;28;20120;-69
2023/05/18 12:01:44;;;;;;;8.52;2.08;;;;;;;;;;5077170;28;20127;-69
2023/05/18 12:04:11;;;;;;;7.20;2.55;;;;;;;;;;5094960;28;20054;-69
2023/05/18 12:06:37;;;;;;;9.60;2.40;;;;;;;;;;5079688;28;20040;-69
2023/05/18 12:09:04;;;;;;;8.35;2.08;;;;;;;;;;5075546;28;20043;-69
2023/05/18 12:11:31;;;;;;;11.38;2.35;;;;;;;;;;5097105;28;20085;-69
2023/05/18 12:13:58;;;;;;;7.30;2.13;;;;;;;;;;5094002;27;21418;-69
2023/05/18 12:16:24;;;;;;;8.02;1.88;;;;;;;;;;5080434;28;20123;-69
2023/05/18 12:18:51;;;;;;;8.90;2.53;;;;;;;;;;5076507;28;20044;-69
2023/05/18 12:21:22;;;;;;;9.07;2.10;;;;;;;;;;5076126;28;20039;-69
2023/05/18 12:23:48;;;;;;;7.30;2.13;;;;;;;;;;5085078;28;20359;-69
2023/05/18 12:26:18;;;;;;;8.38;2.05;;;;;;;;;;5094867;28;20042;-69
2023/05/18 12:28:45;;;;;;;7.45;1.70;;;;;;;;;;5075401;28;20079;-69
2023/05/18 12:31:11;;;;;;;6.47;2.15;;;;;;;;;;5078873;28;20044;-69
2023/05/18 12:33:38;;;;;;;7.15;2.40;;;;;;;;;;5094968;27;20036;-69
2023/05/18 12:36:09;;;;;;;8.35;1.90;;;;;;;;;;5090692;28;20056;-69
2023/05/18 12:38:35;;;;;;;8.38;2.10;;;;;;;;;;5090976;28;20032;-69
2023/05/18 12:41:02;;;;;;;11.75;2.45;;;;;;;;;;5091958;28;20044;-69
2023/05/18 12:43:33;;;;;;;9.85;2.15;;;;;;;;;;5097760;27;20138;-69
2023/05/18 12:46:01;;;;;;;8.85;2.05;;;;;;;;;;5071064;28;20137;-69
2023/05/18 12:48:29;;;;;;;10.45;2.40;;;;;;;;;;5070436;28;20044;-69
2023/05/18 12:50:55;;;;;;;8.05;2.25;;;;;;;;;;5078216;28;20055;-69
2023/05/18 12:53:22;;;;;;;12.30;2.42;;;;;;;;;;5062979;28;20040;-69
2023/05/18 12:55:58;;;;;;;6.80;1.70;;;;;;;;;;5078993;28;20062;-69
2023/05/18 12:58:25;;;;;;;6.57;1.92;;;;;;;;;;5079158;28;20059;-69
2023/05/18 13:00:51;;;;;;;5.85;1.52;;;;;;;;;;5079154;28;20055;-69
2023/05/18 13:03:20;;;;;;;7.40;1.98;;;;;;;;;;5077360;28;20066;-69
2023/05/18 13:06:01;;;;;;;8.48;1.92;;;;;;;;;;5076371;28;20544;-69
2023/05/18 13:08:27;;;;;;;7.00;1.98;;;;;;;;;;5095402;28;20039;-69
2023/05/18 13:10:53;;;;;;;8.35;2.35;;;;;;;;;;5077941;28;20597;-69
2023/05/18 13:13:19;;;;;;;11.18;2.22;;;;;;;;;;5097016;28;20491;-69
2023/05/18 13:15:45;;;;;;;9.45;2.45;;;;;;;;;;5100574;28;20494;-69
2023/05/18 13:18:12;;;;;;;8.05;2.20;;;;;;;;;;5082767;28;20055;-69
2023/05/18 13:20:40;;;;;;;10.95;2.50;;;;;;;;;;5084327;28;20372;-69
2023/05/18 13:23:09;;;;;;;9.18;1.80;;;;;;;;;;5100150;28;20489;-69
2023/05/18 13:25:35;;;;;;;9.32;2.58;;;;;;;;;;5078702;28;20087;-69
2023/05/18 13:28:02;;;;;;;7.90;2.28;;;;;;;;;;5085326;28;20142;-70
2023/05/18 13:30:28;;;;;;;5.53;1.90;;;;;;;;;;5078223;28;20096;-69
2023/05/18 13:32:55;;;;;;;10.88;3.03;;;;;;;;;;5080846;28;20044;-69
2023/05/18 13:35:21;;;;;;;9.70;2.42;;;;;;;;;;5088776;28;20123;-69
2023/05/18 13:37:48;;;;;;;10.18;2.40;;;;;;;;;;5074830;28;20051;-69
2023/05/18 13:40:15;;;;;;;11.43;3.15;;;;;;;;;;5075515;28;20043;-69
2023/05/18 13:42:41;;;;;;;10.00;2.05;;;;;;;;;;5083209;28;20039;-69
2023/05/18 13:45:08;;;;;;;7.93;2.30;;;;;;;;;;5062508;28;20044;-69
2023/05/18 13:47:34;;;;;;;9.07;2.50;;;;;;;;;;5065222;28;20395;-69
2023/05/18 13:50:00;;;;;;;7.88;1.90;;;;;;;;;;5102927;28;20047;-69
2023/05/18 13:52:26;;;;;;;8.90;2.35;;;;;;;;;;5102158;28;20579;-69
2023/05/18 13:54:52;;;;;;;7.78;2.20;;;;;;;;;;5083622;28;20047;-69
2023/05/18 13:57:19;;;;;;;8.23;1.77;;;;;;;;;;5098311;27;20233;-69
2023/05/18 13:59:46;;;;;;;6.95;2.25;;;;;;;;;;5103312;27;20043;-69
2023/05/18 14:02:12;;;;;;;7.68;2.15;;;;;;;;;;5097179;27;20139;-69
2023/05/18 14:04:38;;;;;;;12.35;2.45;;;;;;;;;;5077649;28;20040;-69
2023/05/18 14:07:04;;;;;;;9.23;2.42;;;;;;;;;;5093734;28;20040;-70
2023/05/18 14:09:30;;;;;;;9.20;2.80;;;;;;;;;;5076249;28;20490;-69
2023/05/18 14:11:58;;;;;;;8.30;2.00;;;;;;;;;;5083540;28;20050;-69
2023/05/18 14:14:24;;;;;;;9.65;2.10;;;;;;;;;;5075759;28;20104;-69
2023/05/18 14:16:51;;;;;;;6.45;2.15;;;;;;;;;;5103294;28;20039;-69
2023/05/18 14:19:17;;;;;;;8.57;2.22;;;;;;;;;;5084171;28;20040;-69
2023/05/18 14:21:43;;;;;;;8.38;2.22;;;;;;;;;;5099342;27;20051;-69
2023/05/18 14:24:09;;;;;;;13.48;2.50;;;;;;;;;;5081141;28;20403;-69
2023/05/18 14:26:36;;;;;;;7.88;2.10;;;;;;;;;;5099526;27;20088;-69
2023/05/18 14:29:02;;;;;;;10.15;2.30;;;;;;;;;;5064725;28;20045;-69
2023/05/18 14:31:28;;;;;;;7.15;2.30;;;;;;;;;;5097385;27;20366;-69
2023/05/18 14:33:55;;;;;;;6.32;2.15;;;;;;;;;;5076477;28;20048;-69
2023/05/18 14:36:21;;;;;;;8.90;2.35;;;;;;;;;;5062174;28;20048;-69